sensor_id;sensor_type;location;lat;lon;timestamp;pressure;altitude;pressure_sealevel;temperature;humidity
46007;BME280;31738;50.188;8.524;2023-04-15T00:01:04;98026.28;;;8.36;69.27
46007;BME280;31738;50.188;8.524;2023-04-15T00:03:30;98029.22;;;8.35;69.66
46007;BME280;31738;50.188;8.524;2023-04-15T00:05:57;98021.47;;;8.33;70.02
46007;BME280;31738;50.188;8.524;2023-04-15T00:08:22;98007.88;;;8.30;69.90
46007;BME280;31738;50.188;8.524;2023-04-15T00:10:48;98017.75;;;8.29;70.29
46007;BME280;31738;50.188;8.524;2023-04-15T00:13:14;98011.91;;;8.27;70.26
46007;BME280;31738;50.188;8.524;2023-04-15T00:15:39;98002.28;;;8.26;70.55
46007;BME280;31738;50.188;8.524;2023-04-15T00:18:05;98010.06;;;8.23;70.80
46007;BME280;31738;50.188;8.524;2023-04-15T00:20:32;98008.69;;;8.20;70.31
46007;BME280;31738;50.188;8.524;2023-04-15T00:22:58;98005.50;;;8.18;70.56
46007;BME280;31738;50.188;8.524;2023-04-15T00:25:25;98006.06;;;8.15;70.28
46007;BME280;31738;50.188;8.524;2023-04-15T00:27:50;98001.56;;;8.06;70.78
46007;BME280;31738;50.188;8.524;2023-04-15T00:30:16;98005.06;;;8.01;70.69
46007;BME280;31738;50.188;8.524;2023-04-15T00:32:41;98000.28;;;7.98;70.73
46007;BME280;31738;50.188;8.524;2023-04-15T00:35:07;97998.16;;;7.95;70.84
46007;BME280;31738;50.188;8.524;2023-04-15T00:37:33;97990.91;;;7.96;70.91
46007;BME280;31738;50.188;8.524;2023-04-15T00:40:00;97987.97;;;7.97;71.11
46007;BME280;31738;50.188;8.524;2023-04-15T00:42:26;97986.38;;;8.01;71.00
46007;BME280;31738;50.188;8.524;2023-04-15T00:44:52;97986.66;;;8.00;71.05
46007;BME280;31738;50.188;8.524;2023-04-15T00:47:17;97976.25;;;7.98;71.27
46007;BME280;31738;50.188;8.524;2023-04-15T00:49:43;97983.69;;;8.01;70.88
46007;BME280;31738;50.188;8.524;2023-04-15T00:52:08;97979.94;;;8.02;70.95
46007;BME280;31738;50.188;8.524;2023-04-15T00:54:34;97982.63;;;8.02;70.57
46007;BME280;31738;50.188;8.524;2023-04-15T00:57:00;97976.47;;;8.02;70.69
46007;BME280;31738;50.188;8.524;2023-04-15T00:59:25;97982.84;;;8.11;70.39
46007;BME280;31738;50.188;8.524;2023-04-15T01:01:52;97983.34;;;8.18;70.42
46007;BME280;31738;50.188;8.524;2023-04-15T01:04:18;97986.00;;;8.18;71.07
46007;BME280;31738;50.188;8.524;2023-04-15T01:06:43;97980.94;;;8.16;70.17
46007;BME280;31738;50.188;8.524;2023-04-15T01:09:09;97984.94;;;8.19;70.56
46007;BME280;31738;50.188;8.524;2023-04-15T01:11:37;97980.91;;;8.21;70.49
46007;BME280;31738;50.188;8.524;2023-04-15T01:14:08;97976.13;;;8.23;70.16
46007;BME280;31738;50.188;8.524;2023-04-15T01:16:36;97985.75;;;8.24;69.99
46007;BME280;31738;50.188;8.524;2023-04-15T01:19:07;97983.34;;;8.23;70.16
46007;BME280;31738;50.188;8.524;2023-04-15T01:21:38;97980.91;;;8.26;69.97
46007;BME280;31738;50.188;8.524;2023-04-15T01:24:09;97992.66;;;8.25;69.93
46007;BME280;31738;50.188;8.524;2023-04-15T01:26:37;97988.41;;;8.24;70.10
46007;BME280;31738;50.188;8.524;2023-04-15T01:29:05;97985.22;;;8.22;70.29
46007;BME280;31738;50.188;8.524;2023-04-15T01:31:31;97987.31;;;8.20;70.43
46007;BME280;31738;50.188;8.524;2023-04-15T01:33:58;97988.97;;;8.16;70.52
46007;BME280;31738;50.188;8.524;2023-04-15T01:36:42;97998.09;;;8.00;70.68
46007;BME280;31738;50.188;8.524;2023-04-15T01:39:07;97989.88;;;7.92;70.79
46007;BME280;31738;50.188;8.524;2023-04-15T01:41:33;97989.06;;;7.91;70.82
46007;BME280;31738;50.188;8.524;2023-04-15T01:43:59;97987.50;;;7.90;71.20
46007;BME280;31738;50.188;8.524;2023-04-15T01:46:27;97989.06;;;7.91;71.18
46007;BME280;31738;50.188;8.524;2023-04-15T01:48:53;97984.81;;;7.90;71.48
46007;BME280;31738;50.188;8.524;2023-04-15T01:51:20;97985.38;;;7.87;71.13
46007;BME280;31738;50.188;8.524;2023-04-15T01:53:49;97982.16;;;7.85;71.32
46007;BME280;31738;50.188;8.524;2023-04-15T01:56:16;97981.13;;;7.86;71.58
46007;BME280;31738;50.188;8.524;2023-04-15T01:58:44;97976.28;;;7.88;71.66
46007;BME280;31738;50.188;8.524;2023-04-15T02:01:11;97973.59;;;7.88;71.74
46007;BME280;31738;50.188;8.524;2023-04-15T02:03:38;97971.47;;;7.90;71.39
46007;BME280;31738;50.188;8.524;2023-04-15T02:06:05;97977.84;;;7.94;71.72
46007;BME280;31738;50.188;8.524;2023-04-15T02:08:31;97974.63;;;7.97;71.92
46007;BME280;31738;50.188;8.524;2023-04-15T02:10:58;97969.28;;;7.97;71.56
46007;BME280;31738;50.188;8.524;2023-04-15T02:13:26;97971.97;;;7.97;71.64
46007;BME280;31738;50.188;8.524;2023-04-15T02:15:53;97969.81;;;7.99;71.78
46007;BME280;31738;50.188;8.524;2023-04-15T02:18:21;97970.38;;;7.96;72.17
46007;BME280;31738;50.188;8.524;2023-04-15T02:20:47;97981.03;;;7.96;71.95
46007;BME280;31738;50.188;8.524;2023-04-15T02:23:14;97976.25;;;7.93;71.64
46007;BME280;31738;50.188;8.524;2023-04-15T02:25:43;97977.34;;;7.92;71.89
46007;BME280;31738;50.188;8.524;2023-04-15T02:28:10;97977.84;;;7.94;71.77
46007;BME280;31738;50.188;8.524;2023-04-15T02:30:37;97981.31;;;7.95;72.08
46007;BME280;31738;50.188;8.524;2023-04-15T02:33:04;97980.50;;;7.94;71.99
46007;BME280;31738;50.188;8.524;2023-04-15T02:35:31;97980.50;;;7.94;71.96
46007;BME280;31738;50.188;8.524;2023-04-15T02:37:58;97969.06;;;7.94;72.17
46007;BME280;31738;50.188;8.524;2023-04-15T02:40:24;97970.91;;;7.93;71.89
46007;BME280;31738;50.188;8.524;2023-04-15T02:42:51;97980.50;;;7.94;72.07
46007;BME280;31738;50.188;8.524;2023-04-15T02:45:18;97989.06;;;7.91;72.05
46007;BME280;31738;50.188;8.524;2023-04-15T02:47:49;97987.50;;;7.90;71.68
46007;BME280;31738;50.188;8.524;2023-04-15T02:50:16;97978.94;;;7.88;71.99
46007;BME280;31738;50.188;8.524;2023-04-15T02:52:43;97980.50;;;7.94;71.91
46007;BME280;31738;50.188;8.524;2023-04-15T02:55:11;97980.50;;;7.99;71.62
46007;BME280;31738;50.188;8.524;2023-04-15T02:57:38;97987.19;;;7.97;71.53
46007;BME280;31738;50.188;8.524;2023-04-15T03:00:08;97984.00;;;7.95;71.79
46007;BME280;31738;50.188;8.524;2023-04-15T03:02:39;97986.94;;;7.93;71.88
46007;BME280;31738;50.188;8.524;2023-04-15T03:05:13;97986.94;;;7.93;71.92
46007;BME280;31738;50.188;8.524;2023-04-15T03:07:47;97984.84;;;7.85;72.45
46007;BME280;31738;50.188;8.524;2023-04-15T03:10:13;97977.38;;;7.82;72.22
46007;BME280;31738;50.188;8.524;2023-04-15T03:12:41;97980.06;;;7.77;72.84
46007;BME280;31738;50.188;8.524;2023-04-15T03:15:10;97974.22;;;7.75;72.81
46007;BME280;31738;50.188;8.524;2023-04-15T03:17:41;97971.56;;;7.70;73.23
46007;BME280;31738;50.188;8.524;2023-04-15T03:20:09;97975.59;;;7.68;73.79
46007;BME280;31738;50.188;8.524;2023-04-15T03:22:35;97964.66;;;7.64;73.83
46007;BME280;31738;50.188;8.524;2023-04-15T03:25:03;97966.28;;;7.60;74.06
46007;BME280;31738;50.188;8.524;2023-04-15T03:27:32;97966.28;;;7.55;74.36
46007;BME280;31738;50.188;8.524;2023-04-15T03:30:01;97956.66;;;7.54;74.32
46007;BME280;31738;50.188;8.524;2023-04-15T03:32:31;97955.06;;;7.53;74.73
46007;BME280;31738;50.188;8.524;2023-04-15T03:34:58;97951.09;;;7.51;74.90
46007;BME280;31738;50.188;8.524;2023-04-15T03:37:25;97951.38;;;7.49;74.98
46007;BME280;31738;50.188;8.524;2023-04-15T03:39:52;97953.78;;;7.46;74.73
46007;BME280;31738;50.188;8.524;2023-04-15T03:42:19;97955.13;;;7.43;75.09
46007;BME280;31738;50.188;8.524;2023-04-15T03:44:46;97942.06;;;7.42;75.38
46007;BME280;31738;50.188;8.524;2023-04-15T03:47:13;97947.13;;;7.38;75.55
46007;BME280;31738;50.188;8.524;2023-04-15T03:49:39;97948.47;;;7.36;75.12
46007;BME280;31738;50.188;8.524;2023-04-15T03:52:06;97948.22;;;7.32;75.70
46007;BME280;31738;50.188;8.524;2023-04-15T03:54:33;97939.69;;;7.30;75.53
46007;BME280;31738;50.188;8.524;2023-04-15T03:57:00;97948.75;;;7.29;75.80
46007;BME280;31738;50.188;8.524;2023-04-15T03:59:27;97937.03;;;7.25;75.95
46007;BME280;31738;50.188;8.524;2023-04-15T04:01:53;97947.44;;;7.22;76.19
46007;BME280;31738;50.188;8.524;2023-04-15T04:04:20;97932.00;;;7.19;76.18
46007;BME280;31738;50.188;8.524;2023-04-15T04:06:47;97938.38;;;7.18;76.26
46007;BME280;31738;50.188;8.524;2023-04-15T04:09:13;97925.84;;;7.18;76.52
46007;BME280;31738;50.188;8.524;2023-04-15T04:11:40;97933.31;;;7.16;76.48
46007;BME280;31738;50.188;8.524;2023-04-15T04:14:07;97930.66;;;7.16;76.47
46007;BME280;31738;50.188;8.524;2023-04-15T04:16:33;97922.66;;;7.16;76.60
46007;BME280;31738;50.188;8.524;2023-04-15T04:19:00;97924.81;;;7.14;77.03
46007;BME280;31738;50.188;8.524;2023-04-15T04:21:27;97923.72;;;7.15;77.06
46007;BME280;31738;50.188;8.524;2023-04-15T04:23:54;97927.97;;;7.16;76.88
46007;BME280;31738;50.188;8.524;2023-04-15T04:26:22;97917.31;;;7.16;77.15
46007;BME280;31738;50.188;8.524;2023-04-15T04:28:48;97922.66;;;7.16;76.94
46007;BME280;31738;50.188;8.524;2023-04-15T04:31:15;97928.78;;;7.17;76.93
46007;BME280;31738;50.188;8.524;2023-04-15T04:33:42;97923.19;;;7.18;77.14
46007;BME280;31738;50.188;8.524;2023-04-15T04:36:09;97925.31;;;7.21;77.40
46007;BME280;31738;50.188;8.524;2023-04-15T04:38:35;97918.63;;;7.24;76.97
46007;BME280;31738;50.188;8.524;2023-04-15T04:41:02;97919.97;;;7.26;76.94
46007;BME280;31738;50.188;8.524;2023-04-15T04:43:29;97921.28;;;7.29;76.95
46007;BME280;31738;50.188;8.524;2023-04-15T04:45:56;97919.44;;;7.29;77.10
46007;BME280;31738;50.188;8.524;2023-04-15T04:48:22;97928.47;;;7.33;77.18
46007;BME280;31738;50.188;8.524;2023-04-15T04:50:49;97930.59;;;7.36;77.24
46007;BME280;31738;50.188;8.524;2023-04-15T04:53:16;97924.22;;;7.37;77.20
46007;BME280;31738;50.188;8.524;2023-04-15T04:55:43;97927.38;;;7.39;77.18
46007;BME280;31738;50.188;8.524;2023-04-15T04:58:10;97929.00;;;7.40;77.24
46007;BME280;31738;50.188;8.524;2023-04-15T05:00:37;97933.25;;;7.41;76.93
46007;BME280;31738;50.188;8.524;2023-04-15T05:03:04;97931.13;;;7.43;76.99
46007;BME280;31738;50.188;8.524;2023-04-15T05:05:30;97929.22;;;7.44;76.75
46007;BME280;31738;50.188;8.524;2023-04-15T05:07:57;97936.97;;;7.45;76.93
46007;BME280;31738;50.188;8.524;2023-04-15T05:10:24;97941.50;;;7.45;76.77
46007;BME280;31738;50.188;8.524;2023-04-15T05:12:50;97940.97;;;7.48;77.42
46007;BME280;31738;50.188;8.524;2023-04-15T05:15:18;97944.16;;;7.50;77.20
46007;BME280;31738;50.188;8.524;2023-04-15T05:17:44;97946.53;;;7.51;77.29
46007;BME280;31738;50.188;8.524;2023-04-15T05:20:11;97954.00;;;7.54;77.38
46007;BME280;31738;50.188;8.524;2023-04-15T05:22:39;97950.00;;;7.57;77.68
46007;BME280;31738;50.188;8.524;2023-04-15T05:25:06;97956.09;;;7.62;77.56
46007;BME280;31738;50.188;8.524;2023-04-15T05:27:32;97945.97;;;7.64;77.24
46007;BME280;31738;50.188;8.524;2023-04-15T05:29:59;97953.16;;;7.69;77.43
46007;BME280;31738;50.188;8.524;2023-04-15T05:32:26;97945.41;;;7.72;77.48
46007;BME280;31738;50.188;8.524;2023-04-15T05:34:53;97954.44;;;7.76;77.44
46007;BME280;31738;50.188;8.524;2023-04-15T05:37:19;97953.63;;;7.81;77.78
46007;BME280;31738;50.188;8.524;2023-04-15T05:39:47;97958.13;;;7.85;77.75
46007;BME280;31738;50.188;8.524;2023-04-15T05:42:14;97960.78;;;7.90;77.26
46007;BME280;31738;50.188;8.524;2023-04-15T05:44:41;97950.09;;;7.95;77.24
46007;BME280;31738;50.188;8.524;2023-04-15T05:47:08;97950.03;;;8.00;77.22
46007;BME280;31738;50.188;8.524;2023-04-15T05:49:35;97959.63;;;8.06;77.41
46007;BME280;31738;50.188;8.524;2023-04-15T05:52:02;97953.19;;;8.12;77.34
46007;BME280;31738;50.188;8.524;2023-04-15T05:54:29;97957.44;;;8.18;77.52
46007;BME280;31738;50.188;8.524;2023-04-15T05:56:55;97959.81;;;8.25;77.74
46007;BME280;31738;50.188;8.524;2023-04-15T05:59:23;97955.53;;;8.29;77.63
46007;BME280;31738;50.188;8.524;2023-04-15T06:01:49;97958.66;;;8.36;77.45
46007;BME280;31738;50.188;8.524;2023-04-15T06:04:17;97964.81;;;8.36;77.68
46007;BME280;31738;50.188;8.524;2023-04-15T06:06:44;97965.59;;;8.37;77.63
46007;BME280;31738;50.188;8.524;2023-04-15T06:09:10;97962.72;;;8.33;77.85
46007;BME280;31738;50.188;8.524;2023-04-15T06:11:37;97970.72;;;8.33;77.67
46007;BME280;31738;50.188;8.524;2023-04-15T06:14:04;97970.16;;;8.36;77.48
46007;BME280;31738;50.188;8.524;2023-04-15T06:16:31;97964.53;;;8.43;77.07
46007;BME280;31738;50.188;8.524;2023-04-15T06:18:58;97974.88;;;8.49;76.98
46007;BME280;31738;50.188;8.524;2023-04-15T06:21:24;97973.47;;;8.57;77.20
46007;BME280;31738;50.188;8.524;2023-04-15T06:23:52;97976.38;;;8.65;77.46
46007;BME280;31738;50.188;8.524;2023-04-15T06:26:19;97980.03;;;8.75;77.37
46007;BME280;31738;50.188;8.524;2023-04-15T06:28:46;97985.84;;;8.82;77.44
46007;BME280;31738;50.188;8.524;2023-04-15T06:31:13;97984.69;;;8.93;77.54
46007;BME280;31738;50.188;8.524;2023-04-15T06:33:39;97987.56;;;9.01;77.42
46007;BME280;31738;50.188;8.524;2023-04-15T06:36:06;97993.09;;;9.10;77.45
46007;BME280;31738;50.188;8.524;2023-04-15T06:38:33;97989.81;;;9.18;77.31
46007;BME280;31738;50.188;8.524;2023-04-15T06:41:00;97985.44;;;9.27;77.38
46007;BME280;31738;50.188;8.524;2023-04-15T06:43:26;97993.91;;;9.34;77.05
46007;BME280;31738;50.188;8.524;2023-04-15T06:45:54;97994.91;;;9.43;76.60
46007;BME280;31738;50.188;8.524;2023-04-15T06:48:21;97998.56;;;9.52;76.59
46007;BME280;31738;50.188;8.524;2023-04-15T06:50:48;98000.59;;;9.60;76.44
46007;BME280;31738;50.188;8.524;2023-04-15T06:53:15;98004.25;;;9.69;76.67
46007;BME280;31738;50.188;8.524;2023-04-15T06:55:42;98003.13;;;9.75;76.15
46007;BME280;31738;50.188;8.524;2023-04-15T06:58:09;98005.72;;;9.80;76.72
46007;BME280;31738;50.188;8.524;2023-04-15T07:00:35;98009.16;;;9.85;75.98
46007;BME280;31738;50.188;8.524;2023-04-15T07:03:04;98013.66;;;9.90;75.56
46007;BME280;31738;50.188;8.524;2023-04-15T07:05:31;98016.78;;;9.97;75.01
46007;BME280;31738;50.188;8.524;2023-04-15T07:07:57;98026.34;;;10.03;74.59
46007;BME280;31738;50.188;8.524;2023-04-15T07:10:24;98019.88;;;10.09;74.25
46007;BME280;31738;50.188;8.524;2023-04-15T07:12:51;98023.50;;;10.18;73.87
46007;BME280;31738;50.188;8.524;2023-04-15T07:15:18;98036.25;;;10.26;73.61
46007;BME280;31738;50.188;8.524;2023-04-15T07:17:44;98028.41;;;10.34;73.85
46007;BME280;31738;50.188;8.524;2023-04-15T07:20:12;98033.38;;;10.41;73.86
46007;BME280;31738;50.188;8.524;2023-04-15T07:22:39;98038.09;;;10.49;73.41
46007;BME280;31738;50.188;8.524;2023-04-15T07:25:06;98042.53;;;10.59;73.60
46007;BME280;31738;50.188;8.524;2023-04-15T07:27:33;98042.06;;;10.70;73.29
46007;BME280;31738;50.188;8.524;2023-04-15T07:30:01;98043.44;;;10.86;71.60
46007;BME280;31738;50.188;8.524;2023-04-15T07:32:27;98035.66;;;11.03;72.09
46007;BME280;31738;50.188;8.524;2023-04-15T07:34:54;98056.59;;;11.20;70.22
46007;BME280;31738;50.188;8.524;2023-04-15T07:37:21;98067.06;;;11.35;68.44
46007;BME280;31738;50.188;8.524;2023-04-15T07:39:47;98058.56;;;11.46;69.45
46007;BME280;31738;50.188;8.524;2023-04-15T07:42:14;98069.13;;;11.56;68.63
46007;BME280;31738;50.188;8.524;2023-04-15T07:44:41;98083.19;;;11.67;67.26
46007;BME280;31738;50.188;8.524;2023-04-15T07:47:07;98088.78;;;11.70;65.95
46007;BME280;31738;50.188;8.524;2023-04-15T07:49:34;98099.53;;;11.70;65.75
46007;BME280;31738;50.188;8.524;2023-04-15T07:52:01;98097.94;;;11.69;65.54
46007;BME280;31738;50.188;8.524;2023-04-15T07:54:28;98114.06;;;11.69;64.84
46007;BME280;31738;50.188;8.524;2023-04-15T07:56:54;98116.16;;;11.72;65.50
46007;BME280;31738;50.188;8.524;2023-04-15T07:59:21;98123.03;;;11.78;64.00
46007;BME280;31738;50.188;8.524;2023-04-15T08:01:48;98130.97;;;11.83;63.88
46007;BME280;31738;50.188;8.524;2023-04-15T08:04:15;98134.69;;;11.87;63.02
46007;BME280;31738;50.188;8.524;2023-04-15T08:06:42;98148.22;;;11.96;62.56
46007;BME280;31738;50.188;8.524;2023-04-15T08:09:09;98138.38;;;12.05;62.28
46007;BME280;31738;50.188;8.524;2023-04-15T08:11:36;98134.19;;;12.13;62.59
46007;BME280;31738;50.188;8.524;2023-04-15T08:14:03;98157.25;;;12.19;61.96
46007;BME280;31738;50.188;8.524;2023-04-15T08:16:29;98161.72;;;12.23;61.25
46007;BME280;31738;50.188;8.524;2023-04-15T08:18:56;98160.69;;;12.19;61.00
46007;BME280;31738;50.188;8.524;2023-04-15T08:21:23;98166.88;;;12.20;60.88
46007;BME280;31738;50.188;8.524;2023-04-15T08:23:51;98164.88;;;12.12;59.89
46007;BME280;31738;50.188;8.524;2023-04-15T08:26:19;98174.75;;;12.16;60.31
46007;BME280;31738;50.188;8.524;2023-04-15T08:28:47;98180.53;;;12.23;59.92
46007;BME280;31738;50.188;8.524;2023-04-15T08:31:15;98167.28;;;12.27;59.35
46007;BME280;31738;50.188;8.524;2023-04-15T08:33:42;98173.69;;;12.31;58.99
46007;BME280;31738;50.188;8.524;2023-04-15T08:36:09;98184.81;;;12.38;59.28
46007;BME280;31738;50.188;8.524;2023-04-15T08:38:36;98186.81;;;12.46;58.79
46007;BME280;31738;50.188;8.524;2023-04-15T08:41:08;98188.41;;;12.47;58.66
46007;BME280;31738;50.188;8.524;2023-04-15T08:43:45;98189.91;;;12.53;57.76
46007;BME280;31738;50.188;8.524;2023-04-15T08:46:14;98200.97;;;12.51;57.14
46007;BME280;31738;50.188;8.524;2023-04-15T08:48:41;98198.47;;;12.55;56.94
46007;BME280;31738;50.188;8.524;2023-04-15T08:51:08;98196.47;;;12.60;56.67
46007;BME280;31738;50.188;8.524;2023-04-15T08:53:36;98203.34;;;12.66;56.18
46007;BME280;31738;50.188;8.524;2023-04-15T08:56:04;98194.78;;;12.78;55.61
46007;BME280;31738;50.188;8.524;2023-04-15T08:58:33;98199.78;;;12.84;54.47
46007;BME280;31738;50.188;8.524;2023-04-15T09:01:01;98211.91;;;12.95;53.83
46007;BME280;31738;50.188;8.524;2023-04-15T09:03:29;98215.53;;;13.04;53.35
46007;BME280;31738;50.188;8.524;2023-04-15T09:05:56;98222.56;;;13.14;52.79
46007;BME280;31738;50.188;8.524;2023-04-15T09:08:22;98228.47;;;13.16;52.20
46007;BME280;31738;50.188;8.524;2023-04-15T09:10:49;98238.44;;;13.29;51.68
46007;BME280;31738;50.188;8.524;2023-04-15T09:13:17;98239.00;;;13.39;52.05
46007;BME280;31738;50.188;8.524;2023-04-15T09:15:44;98245.94;;;13.54;51.75
46007;BME280;31738;50.188;8.524;2023-04-15T09:18:11;98252.06;;;13.68;50.88
46007;BME280;31738;50.188;8.524;2023-04-15T09:20:40;98254.66;;;13.73;51.34
46007;BME280;31738;50.188;8.524;2023-04-15T09:23:13;98273.03;;;13.71;50.44
46007;BME280;31738;50.188;8.524;2023-04-15T09:25:41;98273.53;;;13.73;51.01
46007;BME280;31738;50.188;8.524;2023-04-15T09:28:08;98276.78;;;13.84;50.51
46007;BME280;31738;50.188;8.524;2023-04-15T09:30:35;98290.94;;;13.89;49.06
46007;BME280;31738;50.188;8.524;2023-04-15T09:33:03;98295.72;;;13.92;48.77
46007;BME280;31738;50.188;8.524;2023-04-15T09:35:33;98305.22;;;13.90;48.21
46007;BME280;31738;50.188;8.524;2023-04-15T09:38:06;98314.53;;;13.84;47.82
46007;BME280;31738;50.188;8.524;2023-04-15T09:43:02;98322.97;;;13.68;47.82
46007;BME280;31738;50.188;8.524;2023-04-15T09:45:31;98342.03;;;13.58;47.86
46007;BME280;31738;50.188;8.524;2023-04-15T09:47:59;98340.94;;;13.46;47.58
46007;BME280;31738;50.188;8.524;2023-04-15T09:50:43;98336.06;;;13.34;47.75
46007;BME280;31738;50.188;8.524;2023-04-15T09:53:10;98333.19;;;13.31;48.26
46007;BME280;31738;50.188;8.524;2023-04-15T09:55:37;98350.75;;;13.28;48.16
46007;BME280;31738;50.188;8.524;2023-04-15T09:58:08;98355.31;;;13.28;48.17
46007;BME280;31738;50.188;8.524;2023-04-15T10:00:43;98350.53;;;13.25;48.50
46007;BME280;31738;50.188;8.524;2023-04-15T10:03:09;98355.31;;;13.28;48.79
46007;BME280;31738;50.188;8.524;2023-04-15T10:05:37;98346.66;;;13.31;49.33
46007;BME280;31738;50.188;8.524;2023-04-15T10:08:04;98354.34;;;13.24;48.73
46007;BME280;31738;50.188;8.524;2023-04-15T10:10:31;98350.53;;;13.25;49.08
46007;BME280;31738;50.188;8.524;2023-04-15T10:12:58;98350.34;;;13.21;49.54
46007;BME280;31738;50.188;8.524;2023-04-15T10:15:27;98355.94;;;13.25;50.06
46007;BME280;31738;50.188;8.524;2023-04-15T10:17:55;98351.56;;;13.29;50.01
46007;BME280;31738;50.188;8.524;2023-04-15T10:20:23;98359.50;;;13.34;50.11
46007;BME280;31738;50.188;8.524;2023-04-15T10:22:51;98358.91;;;13.37;49.59
46007;BME280;31738;50.188;8.524;2023-04-15T10:25:18;98368.72;;;13.33;49.52
46007;BME280;31738;50.188;8.524;2023-04-15T10:27:46;98366.00;;;13.33;49.53
46007;BME280;31738;50.188;8.524;2023-04-15T10:30:14;98363.09;;;13.29;49.53
46007;BME280;31738;50.188;8.524;2023-04-15T10:32:41;98373.72;;;13.26;49.39
46007;BME280;31738;50.188;8.524;2023-04-15T10:35:08;98375.88;;;13.24;49.88
46007;BME280;31738;50.188;8.524;2023-04-15T10:37:36;98377.09;;;13.31;49.83
46007;BME280;31738;50.188;8.524;2023-04-15T10:40:23;98373.28;;;13.46;50.44
46007;BME280;31738;50.188;8.524;2023-04-15T10:42:50;98378.66;;;13.46;49.70
46007;BME280;31738;50.188;8.524;2023-04-15T10:45:18;98379.78;;;13.45;49.58
46007;BME280;31738;50.188;8.524;2023-04-15T10:47:44;98374.88;;;13.47;49.79
46007;BME280;31738;50.188;8.524;2023-04-15T10:50:11;98374.06;;;13.60;50.13
46007;BME280;31738;50.188;8.524;2023-04-15T10:52:41;98374.34;;;13.72;50.40
46007;BME280;31738;50.188;8.524;2023-04-15T10:55:13;98362.84;;;13.80;50.01
46007;BME280;31738;50.188;8.524;2023-04-15T10:57:43;98362.03;;;13.93;50.68
46007;BME280;31738;50.188;8.524;2023-04-15T11:00:14;98362.16;;;13.88;50.35
46007;BME280;31738;50.188;8.524;2023-04-15T11:05:18;98358.13;;;13.99;50.30
46007;BME280;31738;50.188;8.524;2023-04-15T11:07:52;98354.22;;;14.05;50.30
46007;BME280;31738;50.188;8.524;2023-04-15T11:12:52;98360.69;;;14.04;50.54
46007;BME280;31738;50.188;8.524;2023-04-15T11:20:40;98370.09;;;14.07;50.22
46007;BME280;31738;50.188;8.524;2023-04-15T11:23:08;98373.38;;;14.04;50.21
46007;BME280;31738;50.188;8.524;2023-04-15T11:25:35;98376.16;;;14.12;50.12
46007;BME280;31738;50.188;8.524;2023-04-15T11:28:05;98383.63;;;14.15;50.31
46007;BME280;31738;50.188;8.524;2023-04-15T11:30:34;98381.38;;;14.09;51.55
46007;BME280;31738;50.188;8.524;2023-04-15T11:33:06;98378.97;;;14.07;52.21
46007;BME280;31738;50.188;8.524;2023-04-15T11:35:34;98388.50;;;13.91;52.85
46007;BME280;31738;50.188;8.524;2023-04-15T11:38:02;98379.84;;;13.81;54.50
46007;BME280;31738;50.188;8.524;2023-04-15T11:40:30;98379.63;;;13.77;54.73
46007;BME280;31738;50.188;8.524;2023-04-15T11:45:53;98369.25;;;13.70;56.46
46007;BME280;31738;50.188;8.524;2023-04-15T11:48:32;98380.06;;;13.57;56.11
46007;BME280;31738;50.188;8.524;2023-04-15T11:51:04;98370.59;;;13.46;57.97
46007;BME280;31738;50.188;8.524;2023-04-15T11:53:42;98365.78;;;13.43;59.63
46007;BME280;31738;50.188;8.524;2023-04-15T11:56:10;98367.13;;;13.32;58.91
46007;BME280;31738;50.188;8.524;2023-04-15T11:58:37;98360.53;;;13.24;60.25
46007;BME280;31738;50.188;8.524;2023-04-15T12:01:04;98354.94;;;13.21;60.92
46007;BME280;31738;50.188;8.524;2023-04-15T12:03:36;98348.66;;;13.12;62.07
46007;BME280;31738;50.188;8.524;2023-04-15T12:06:21;98341.19;;;13.09;63.51
46007;BME280;31738;50.188;8.524;2023-04-15T12:11:14;98330.59;;;13.12;65.99
46007;BME280;31738;50.188;8.524;2023-04-15T12:13:44;98316.22;;;13.17;65.96
46007;BME280;31738;50.188;8.524;2023-04-15T12:16:10;98321.22;;;13.10;66.71
46007;BME280;31738;50.188;8.524;2023-04-15T12:18:38;98318.19;;;12.98;65.93
46007;BME280;31738;50.188;8.524;2023-04-15T12:21:10;98320.16;;;12.79;66.18
46007;BME280;31738;50.188;8.524;2023-04-15T12:24:06;98313.19;;;12.78;66.86
46007;BME280;31738;50.188;8.524;2023-04-15T12:26:34;98304.03;;;12.79;67.39
46007;BME280;31738;50.188;8.524;2023-04-15T12:29:01;98302.66;;;12.81;67.97
46007;BME280;31738;50.188;8.524;2023-04-15T12:31:27;98306.31;;;12.72;69.33
46007;BME280;31738;50.188;8.524;2023-04-15T12:33:59;98287.88;;;12.79;70.86
46007;BME280;31738;50.188;8.524;2023-04-15T12:36:26;98299.06;;;12.86;70.55
46007;BME280;31738;50.188;8.524;2023-04-15T12:38:52;98294.88;;;12.80;70.33
46007;BME280;31738;50.188;8.524;2023-04-15T12:41:19;98299.13;;;12.67;70.21
46007;BME280;31738;50.188;8.524;2023-04-15T12:43:45;98300.03;;;12.63;71.41
46007;BME280;31738;50.188;8.524;2023-04-15T12:46:12;98300.13;;;12.58;71.35
46007;BME280;31738;50.188;8.524;2023-04-15T12:48:38;98287.25;;;12.55;71.02
46007;BME280;31738;50.188;8.524;2023-04-15T12:51:04;98300.31;;;12.48;72.03
46007;BME280;31738;50.188;8.524;2023-04-15T12:53:29;98298.09;;;12.50;71.85
46007;BME280;31738;50.188;8.524;2023-04-15T12:55:55;98302.28;;;12.42;72.58
46007;BME280;31738;50.188;8.524;2023-04-15T12:58:20;98297.19;;;12.41;72.48
46007;BME280;31738;50.188;8.524;2023-04-15T13:00:46;98288.41;;;12.35;73.26
46007;BME280;31738;50.188;8.524;2023-04-15T13:03:11;98295.16;;;12.33;72.82
46007;BME280;31738;50.188;8.524;2023-04-15T13:05:37;98289.78;;;12.33;73.68
46007;BME280;31738;50.188;8.524;2023-04-15T13:08:04;98297.56;;;12.34;74.28
46007;BME280;31738;50.188;8.524;2023-04-15T13:10:31;98289.06;;;12.14;74.91
46007;BME280;31738;50.188;8.524;2023-04-15T13:12:56;98297.41;;;12.12;74.74
46007;BME280;31738;50.188;8.524;2023-04-15T13:15:22;98292.81;;;12.13;75.22
46007;BME280;31738;50.188;8.524;2023-04-15T13:17:48;98291.81;;;12.08;75.11
46007;BME280;31738;50.188;8.524;2023-04-15T13:20:14;98286.91;;;11.97;74.66
46007;BME280;31738;50.188;8.524;2023-04-15T13:22:40;98286.31;;;12.00;75.15
46007;BME280;31738;50.188;8.524;2023-04-15T13:25:06;98284.94;;;12.02;75.17